createdAt,value
2018-08-20T00:02:06.568Z,5.73
2018-08-20T00:04:40.668Z,6.60
2018-08-20T00:07:09.562Z,6.40
2018-08-20T00:09:43.528Z,5.90
2018-08-20T00:12:13.192Z,6.00
2018-08-20T00:14:42.697Z,6.73
2018-08-20T00:17:11.668Z,6.03
2018-08-20T00:19:41.823Z,6.67
2018-08-20T00:22:10.955Z,6.80
2018-08-20T00:24:40.395Z,6.07
2018-08-20T00:27:09.192Z,6.43
2018-08-20T00:29:39.827Z,6.60
2018-08-20T00:32:09.388Z,7.20
2018-08-20T00:34:38.333Z,6.70
2018-08-20T00:37:07.837Z,6.70
2018-08-20T00:39:36.924Z,6.40
2018-08-20T00:42:06.268Z,7.57
2018-08-20T00:44:35.539Z,6.33
2018-08-20T00:47:04.612Z,8.83
2018-08-20T00:49:33.389Z,6.53
2018-08-20T00:52:02.100Z,6.07
2018-08-20T00:54:30.792Z,9.03
2018-08-20T00:57:00.584Z,6.20
2018-08-20T00:59:30.009Z,5.83
2018-08-20T01:02:01.080Z,7.03
2018-08-20T01:04:29.824Z,6.17
2018-08-20T01:06:58.741Z,6.77
2018-08-20T01:09:27.619Z,6.40
2018-08-20T01:11:56.413Z,7.10
2018-08-20T01:14:25.318Z,7.00
2018-08-20T01:16:55.322Z,7.93
2018-08-20T01:19:24.888Z,9.90
2018-08-20T01:21:53.828Z,7.27
2018-08-20T01:24:23.244Z,6.73
2018-08-20T01:26:52.428Z,8.23
2018-08-20T01:29:21.817Z,7.00
2018-08-20T01:31:51.267Z,7.00
2018-08-20T01:34:21.397Z,6.50
2018-08-20T01:36:50.433Z,8.00
2018-08-20T01:39:19.780Z,8.23
2018-08-20T01:41:49.170Z,7.00
2018-08-20T01:44:18.444Z,7.70
2018-08-20T01:46:47.313Z,9.60
2018-08-20T01:49:16.199Z,12.20
2018-08-20T01:51:44.894Z,7.83
2018-08-20T01:54:13.743Z,11.90
2018-08-20T01:56:42.484Z,10.77
2018-08-20T01:59:12.024Z,12.60
2018-08-20T02:01:40.990Z,8.50
2018-08-20T02:04:10.154Z,7.97
2018-08-20T02:06:39.078Z,10.33
2018-08-20T02:09:09.073Z,13.37
2018-08-20T02:11:38.620Z,9.60
2018-08-20T02:14:07.392Z,10.20
2018-08-20T02:16:36.414Z,7.17
2018-08-20T02:19:06.600Z,9.20
2018-08-20T02:21:35.271Z,7.53
2018-08-20T02:24:05.696Z,12.00
2018-08-20T02:26:34.489Z,11.27
2018-08-20T02:29:03.378Z,8.90
2018-08-20T02:31:32.197Z,8.03
2018-08-20T02:34:00.909Z,10.90
2018-08-20T02:36:29.781Z,7.63
2018-08-20T02:39:00.409Z,7.77
2018-08-20T02:41:29.141Z,14.23
2018-08-20T02:43:58.488Z,7.30
2018-08-20T02:46:38.206Z,6.90
2018-08-20T02:49:07.829Z,10.83
2018-08-20T02:51:37.421Z,12.77
2018-08-20T02:54:06.312Z,8.77
2018-08-20T02:56:35.120Z,7.47
2018-08-20T02:59:04.476Z,7.20
2018-08-20T03:01:34.384Z,7.27
2018-08-20T03:04:04.080Z,8.07
2018-08-20T03:06:32.973Z,6.30
2018-08-20T03:09:02.816Z,8.50
2018-08-20T03:11:32.232Z,8.90
2018-08-20T03:14:01.168Z,6.43
2018-08-20T03:16:30.242Z,6.43
2018-08-20T03:18:58.957Z,6.17
2018-08-20T03:21:28.139Z,6.77
2018-08-20T03:23:56.943Z,7.50
2018-08-20T03:26:25.644Z,6.80
2018-08-20T03:28:54.589Z,7.33
2018-08-20T03:31:23.445Z,10.10
2018-08-20T03:33:52.404Z,9.13
2018-08-20T03:36:21.193Z,6.80
2018-08-20T03:38:50.080Z,7.03
2018-08-20T03:41:19.627Z,6.20
2018-08-20T03:43:50.261Z,7.37
2018-08-20T03:46:19.329Z,6.90
2018-08-20T03:48:49.536Z,7.40
2018-08-20T03:51:18.432Z,6.53
2018-08-20T03:53:47.829Z,7.40
2018-08-20T03:56:16.703Z,6.97
2018-08-20T03:58:46.149Z,9.00
2018-08-20T04:01:15.045Z,6.70
2018-08-20T04:03:43.668Z,6.70
2018-08-20T04:06:12.409Z,6.80
2018-08-20T04:08:41.178Z,7.03
2018-08-20T04:11:09.945Z,7.70
2018-08-20T04:13:38.629Z,6.60
2018-08-20T04:16:07.310Z,6.73
2018-08-20T04:18:36.133Z,6.43
2018-08-20T04:21:05.112Z,10.10
2018-08-20T04:23:34.030Z,6.93
2018-08-20T04:26:02.943Z,9.13
2018-08-20T04:28:31.808Z,11.83
2018-08-20T04:31:01.370Z,7.07
2018-08-20T04:33:30.408Z,9.27
2018-08-20T04:35:59.166Z,7.80
2018-08-20T04:38:27.996Z,7.43
2018-08-20T04:40:56.839Z,7.10
2018-08-20T04:43:25.677Z,6.80
2018-08-20T04:45:54.644Z,7.20
2018-08-20T04:48:23.464Z,9.60
2018-08-20T04:50:52.493Z,7.33
2018-08-20T04:53:21.201Z,6.90
2018-08-20T04:55:50.549Z,7.70
2018-08-20T04:58:20.009Z,8.90
2018-08-20T05:00:49.428Z,7.73
2018-08-20T05:03:18.299Z,8.10
2018-08-20T05:05:47.855Z,6.70
2018-08-20T05:08:16.619Z,7.30
2018-08-20T05:10:45.438Z,13.20
2018-08-20T05:13:14.319Z,8.53
2018-08-20T05:15:43.172Z,6.20
2018-08-20T05:18:12.118Z,7.40
2018-08-20T05:20:41.035Z,9.77
2018-08-20T05:23:09.944Z,9.07
2018-08-20T05:25:39.397Z,14.10
2018-08-20T05:28:08.972Z,9.27
2018-08-20T05:30:38.420Z,8.83
2018-08-20T05:33:07.489Z,9.90
2018-08-20T05:35:36.168Z,18.50
2018-08-20T05:38:05.156Z,9.30
2018-08-20T05:40:33.975Z,11.23
2018-08-20T05:43:02.944Z,11.60
2018-08-20T05:45:31.761Z,16.97
2018-08-20T05:48:00.506Z,20.33
2018-08-20T05:50:29.907Z,25.30
2018-08-20T05:52:58.606Z,22.70
2018-08-20T05:55:27.385Z,17.07
2018-08-20T05:57:56.148Z,13.40
2018-08-20T06:00:24.897Z,13.10
2018-08-20T06:02:53.675Z,20.00
2018-08-20T06:05:22.563Z,21.10
2018-08-20T06:07:52.535Z,16.20
2018-08-20T06:10:21.549Z,17.53
2018-08-20T06:12:52.624Z,20.27
2018-08-20T06:15:21.562Z,18.13
2018-08-20T06:17:50.380Z,18.63
2018-08-20T06:20:19.211Z,14.67
2018-08-20T06:22:48.073Z,16.80
2018-08-20T06:25:17.401Z,14.70
2018-08-20T06:27:46.351Z,25.43
2018-08-20T06:30:17.792Z,37.10
2018-08-20T06:32:46.744Z,19.40
2018-08-20T06:35:15.839Z,21.27
2018-08-20T06:37:44.661Z,26.03
2018-08-20T06:40:14.887Z,12.77
2018-08-20T06:42:44.263Z,19.57
2018-08-20T06:45:16.848Z,36.20
2018-08-20T06:47:46.810Z,23.20
2018-08-20T06:50:15.821Z,20.03
2018-08-20T06:52:45.379Z,25.93
2018-08-20T06:55:15.739Z,18.53
2018-08-20T06:57:45.554Z,13.47
2018-08-20T07:00:15.160Z,16.80
2018-08-20T07:02:44.108Z,21.13
2018-08-20T07:05:14.737Z,24.57
2018-08-20T07:07:44.020Z,15.07
2018-08-20T07:10:13.761Z,26.30
2018-08-20T07:12:43.810Z,20.97
2018-08-20T07:15:14.584Z,18.53
2018-08-20T07:17:43.345Z,11.80
2018-08-20T07:20:13.725Z,10.43
2018-08-20T07:22:43.055Z,17.03
2018-08-20T07:25:12.170Z,13.00
2018-08-20T07:27:41.020Z,18.23
2018-08-20T07:30:11.640Z,11.13
2018-08-20T07:32:40.848Z,8.80
2018-08-20T07:35:09.804Z,7.97
2018-08-20T07:37:39.201Z,9.30
2018-08-20T07:40:10.976Z,7.33
2018-08-20T07:42:39.750Z,6.30
2018-08-20T07:45:08.669Z,9.10
2018-08-20T07:47:37.541Z,8.50
2018-08-20T07:50:06.457Z,11.00
2018-08-20T07:52:35.973Z,6.23
2018-08-20T07:55:05.105Z,6.10
2018-08-20T07:57:33.911Z,8.50
2018-08-20T08:00:02.615Z,6.73
2018-08-20T08:02:31.900Z,6.90
2018-08-20T08:05:01.391Z,7.73
2018-08-20T08:07:30.209Z,7.10
2018-08-20T08:09:58.988Z,8.13
2018-08-20T08:12:27.936Z,7.47
2018-08-20T08:14:58.299Z,6.00
2018-08-20T08:17:27.115Z,6.20
2018-08-20T08:19:56.398Z,7.17
2018-08-20T08:22:25.262Z,5.63
2018-08-20T08:24:55.860Z,6.13
2018-08-20T08:27:25.590Z,6.03
2018-08-20T08:29:54.637Z,6.80
2018-08-20T08:32:23.463Z,6.67
2018-08-20T08:34:53.130Z,9.67
2018-08-20T08:37:21.747Z,7.30
2018-08-20T08:39:50.615Z,5.73
2018-08-20T08:42:20.024Z,6.73
2018-08-20T08:44:48.919Z,6.60
2018-08-20T08:47:17.765Z,8.30
2018-08-20T08:49:47.221Z,8.03
2018-08-20T08:52:16.819Z,6.90
2018-08-20T08:54:45.796Z,8.13
2018-08-20T08:57:14.897Z,6.07
2018-08-20T08:59:44.033Z,9.00
2018-08-20T09:02:12.969Z,5.97
2018-08-20T09:04:42.104Z,7.00
2018-08-20T09:07:10.797Z,6.40
2018-08-20T09:09:39.689Z,6.23
2018-08-20T09:12:08.666Z,6.97
2018-08-20T09:14:38.127Z,6.13
2018-08-20T09:17:07.761Z,6.73
2018-08-20T09:19:36.600Z,5.53
2018-08-20T09:22:05.516Z,7.57
2018-08-20T09:24:34.419Z,6.83
2018-08-20T09:27:03.314Z,6.90
2018-08-20T09:29:32.304Z,8.40
2018-08-20T09:32:00.989Z,6.70
2018-08-20T09:34:29.784Z,6.80
2018-08-20T09:36:59.380Z,7.40
2018-08-20T09:39:28.209Z,6.97
2018-08-20T09:41:57.586Z,7.73
2018-08-20T09:44:26.573Z,6.23
2018-08-20T09:46:55.929Z,20.40
2018-08-20T09:49:24.903Z,15.80
2018-08-20T09:51:54.440Z,32.67
2018-08-20T09:54:24.055Z,13.00
2018-08-20T09:56:52.984Z,23.43
2018-08-20T09:59:21.908Z,7.73
2018-08-20T10:01:50.652Z,6.50
2018-08-20T10:04:19.474Z,7.10
2018-08-20T10:06:48.370Z,6.33
2018-08-20T10:09:17.044Z,7.20
2018-08-20T10:11:47.090Z,5.43
2018-08-20T10:14:16.868Z,7.57
2018-08-20T10:16:45.608Z,6.27
2018-08-20T10:19:14.563Z,6.07
2018-08-20T10:21:43.760Z,5.90
2018-08-20T10:24:13.396Z,6.50
2018-08-20T10:26:42.255Z,6.13
2018-08-20T10:29:11.877Z,8.40
2018-08-20T10:31:41.180Z,6.50
2018-08-20T10:34:10.079Z,6.00
2018-08-20T10:36:38.843Z,6.40
2018-08-20T10:39:09.495Z,5.60
2018-08-20T10:41:38.429Z,6.67
2018-08-20T10:44:13.924Z,5.50
2018-08-20T10:46:42.596Z,6.13
2018-08-20T10:49:11.580Z,6.13
2018-08-20T10:51:40.289Z,6.27
2018-08-20T10:54:10.227Z,5.60
2018-08-20T10:56:39.761Z,6.47
2018-08-20T10:59:10.101Z,6.07
2018-08-20T11:01:38.924Z,6.67
2018-08-20T11:04:07.981Z,5.07
2018-08-20T11:06:36.888Z,5.37
2018-08-20T11:09:09.009Z,6.80
2018-08-20T11:11:37.873Z,5.57
2018-08-20T11:14:06.801Z,6.27
2018-08-20T11:16:35.656Z,5.47
2018-08-20T11:19:07.561Z,5.90
2018-08-20T11:21:37.064Z,4.80
2018-08-20T11:24:06.044Z,6.27
2018-08-20T11:26:35.502Z,6.47
2018-08-20T11:29:04.672Z,5.10
2018-08-20T11:31:34.308Z,5.47
2018-08-20T11:34:03.689Z,4.63
2018-08-20T11:36:33.283Z,4.43
2018-08-20T11:39:03.282Z,4.33
2018-08-20T11:41:33.268Z,5.17
2018-08-20T11:44:02.093Z,5.17
2018-08-20T11:46:31.001Z,5.47
2018-08-20T11:49:01.320Z,11.13
2018-08-20T11:51:30.194Z,6.23
2018-08-20T11:53:59.161Z,4.90
2018-08-20T11:56:30.324Z,4.70
2018-08-20T11:58:59.370Z,4.33
2018-08-20T12:01:29.030Z,5.60
2018-08-20T12:04:02.035Z,4.70
2018-08-20T12:06:30.765Z,4.90
2018-08-20T12:09:00.120Z,5.07
2018-08-20T12:11:28.996Z,4.60
2018-08-20T12:13:57.853Z,5.03
2018-08-20T12:16:26.569Z,7.30
2018-08-20T12:18:56.199Z,5.40
2018-08-20T12:21:25.581Z,4.73
2018-08-20T12:23:54.349Z,6.00
2018-08-20T12:26:23.273Z,5.60
2018-08-20T12:28:53.287Z,4.80
2018-08-20T12:31:22.168Z,4.73
2018-08-20T12:33:50.939Z,4.90
2018-08-20T12:36:19.839Z,6.30
2018-08-20T12:38:49.217Z,4.57
2018-08-20T12:41:18.462Z,5.07
2018-08-20T12:43:47.150Z,4.13
2018-08-20T12:46:18.632Z,4.20
2018-08-20T12:48:49.071Z,5.90
2018-08-20T12:51:18.733Z,4.10
2018-08-20T12:53:48.258Z,4.60
2018-08-20T12:56:17.191Z,4.30
2018-08-20T12:58:49.884Z,4.50
2018-08-20T13:01:19.082Z,5.60
2018-08-20T13:03:48.664Z,4.73
2018-08-20T13:06:17.681Z,4.20
2018-08-20T13:08:47.501Z,4.87
2018-08-20T13:11:16.696Z,3.60
2018-08-20T13:13:46.053Z,4.10
2018-08-20T13:16:15.003Z,4.70
2018-08-20T13:18:43.824Z,7.90
2018-08-20T13:21:12.796Z,4.67
2018-08-20T13:23:41.796Z,5.20
2018-08-20T13:26:11.354Z,4.30
2018-08-20T13:28:40.376Z,4.60
2018-08-20T13:31:09.964Z,3.90
2018-08-20T13:33:38.898Z,4.10
2018-08-20T13:36:08.381Z,4.13
2018-08-20T13:38:37.393Z,4.77
2018-08-20T13:41:06.909Z,10.07
2018-08-20T13:43:35.818Z,4.60
2018-08-20T13:46:05.823Z,4.63
2018-08-20T13:48:34.620Z,4.27
2018-08-20T13:51:03.452Z,6.33
2018-08-20T13:53:33.084Z,4.80
2018-08-20T13:56:02.653Z,4.17
2018-08-20T13:58:31.563Z,5.00
2018-08-20T14:01:01.240Z,4.60
2018-08-20T14:03:31.312Z,4.30
2018-08-20T14:06:00.202Z,5.03
2018-08-20T14:08:29.244Z,5.40
2018-08-20T14:10:58.231Z,4.20
2018-08-20T14:13:27.212Z,4.93
2018-08-20T14:15:57.034Z,5.17
2018-08-20T14:18:26.121Z,4.63
2018-08-20T14:21:03.584Z,4.87
2018-08-20T14:23:33.506Z,4.93
2018-08-20T14:26:02.377Z,5.20
2018-08-20T14:28:31.441Z,5.17
2018-08-20T14:31:00.157Z,6.37
2018-08-20T14:33:28.900Z,4.73
2018-08-20T14:35:58.331Z,5.77
2018-08-20T14:38:27.079Z,5.23
2018-08-20T14:40:55.784Z,5.23
2018-08-20T14:43:26.617Z,7.87
2018-08-20T14:46:01.923Z,7.37
2018-08-20T14:48:30.871Z,6.97
2018-08-20T14:50:59.956Z,8.23
2018-08-20T14:53:30.050Z,5.80
2018-08-20T14:55:58.760Z,6.30
2018-08-20T14:58:27.647Z,5.60
2018-08-20T15:00:57.640Z,5.27
2018-08-20T15:03:26.429Z,5.47
2018-08-20T15:06:00.152Z,5.80
2018-08-20T15:08:29.291Z,5.50
2018-08-20T15:10:59.157Z,6.80
2018-08-20T15:13:28.848Z,5.50
2018-08-20T15:15:58.734Z,6.07
2018-08-20T15:18:27.580Z,5.00
2018-08-20T15:20:57.684Z,5.30
2018-08-20T15:23:26.671Z,6.00
2018-08-20T15:25:55.605Z,5.23
2018-08-20T15:28:24.458Z,5.93
2018-08-20T15:30:53.338Z,5.33
2018-08-20T15:33:22.429Z,5.80
2018-08-20T15:35:51.424Z,5.33
2018-08-20T15:38:20.065Z,5.83
2018-08-20T15:40:48.805Z,6.07
2018-08-20T15:43:17.450Z,5.93
2018-08-20T15:45:46.363Z,5.80
2018-08-20T15:48:15.455Z,5.57
2018-08-20T15:50:44.383Z,8.43
2018-08-20T15:53:13.169Z,7.87
2018-08-20T15:55:41.808Z,5.87
2018-08-20T15:58:10.498Z,6.30
2018-08-20T16:00:39.194Z,6.40
2018-08-20T16:03:08.008Z,5.60
2018-08-20T16:05:36.679Z,5.63
2018-08-20T16:08:06.881Z,7.57
2018-08-20T16:10:37.786Z,10.20
2018-08-20T16:13:06.945Z,7.03
2018-08-20T16:15:35.806Z,5.50
2018-08-20T16:18:04.687Z,6.60
2018-08-20T16:20:33.497Z,7.97
2018-08-20T16:23:02.444Z,6.30
2018-08-20T16:25:32.040Z,6.23
2018-08-20T16:28:01.533Z,6.30
2018-08-20T16:30:30.356Z,6.50
2018-08-20T16:32:59.239Z,5.60
2018-08-20T16:35:28.345Z,6.20
2018-08-20T16:37:57.709Z,6.30
2018-08-20T16:40:26.562Z,7.90
2018-08-20T16:43:00.538Z,6.80
2018-08-20T16:45:29.350Z,6.47
2018-08-20T16:48:02.720Z,6.10
2018-08-20T16:50:31.734Z,5.63
2018-08-20T16:53:00.683Z,7.10
2018-08-20T16:55:29.509Z,6.30
2018-08-20T16:57:58.859Z,6.47
2018-08-20T17:00:28.387Z,6.33
2018-08-20T17:02:57.716Z,6.77
2018-08-20T17:05:29.995Z,5.83
2018-08-20T17:07:59.292Z,6.00
2018-08-20T17:10:28.829Z,5.07
2018-08-20T17:12:58.692Z,6.03
2018-08-20T17:15:27.684Z,5.80
2018-08-20T17:17:57.545Z,5.73
2018-08-20T17:20:26.564Z,5.10
2018-08-20T17:23:05.214Z,8.47
2018-08-20T17:25:34.017Z,5.20
2018-08-20T17:28:03.353Z,7.23
2018-08-20T17:30:33.812Z,6.83
2018-08-20T17:33:02.842Z,5.67
2018-08-20T17:35:31.845Z,14.67
2018-08-20T17:38:04.608Z,5.67
2018-08-20T17:40:34.273Z,12.10
2018-08-20T17:43:03.325Z,9.73
2018-08-20T17:45:32.914Z,6.40
2018-08-20T17:48:01.897Z,6.20
2018-08-20T17:50:38.991Z,4.90
2018-08-20T17:53:08.141Z,5.80
2018-08-20T17:55:37.522Z,6.60
2018-08-20T17:58:06.514Z,8.20
2018-08-20T18:00:41.507Z,6.20
2018-08-20T18:03:20.293Z,5.10
2018-08-20T18:05:53.348Z,5.03
2018-08-20T18:08:23.155Z,7.07
2018-08-20T18:10:52.434Z,5.23
2018-08-20T18:13:33.370Z,4.93
2018-08-20T18:16:04.004Z,4.77
2018-08-20T18:18:37.985Z,5.20
2018-08-20T18:21:07.596Z,5.17
2018-08-20T18:23:36.878Z,5.30
2018-08-20T18:26:06.360Z,6.50
2018-08-20T18:28:41.167Z,6.43
2018-08-20T18:31:11.781Z,8.10
2018-08-20T18:33:42.071Z,6.30
2018-08-20T18:36:17.774Z,6.63
2018-08-20T18:38:59.032Z,5.77
2018-08-20T18:42:12.927Z,6.53
2018-08-20T18:44:41.829Z,7.43
2018-08-20T18:47:13.480Z,7.03
2018-08-20T18:49:49.421Z,5.30
2018-08-20T18:52:20.036Z,5.77
2018-08-20T18:54:51.805Z,6.70
2018-08-20T18:57:22.299Z,6.47
2018-08-20T18:59:51.457Z,6.47
2018-08-20T19:02:40.303Z,6.27
2018-08-20T19:05:12.544Z,5.40
2018-08-20T19:07:41.777Z,5.70
2018-08-20T19:10:27.881Z,5.57
2018-08-20T19:12:57.425Z,7.20
2018-08-20T19:15:32.481Z,6.67
2018-08-20T19:18:02.074Z,6.60
2018-08-20T19:20:30.917Z,5.50
2018-08-20T19:22:59.857Z,6.07
2018-08-20T19:25:28.798Z,6.90
2018-08-20T19:27:59.531Z,6.10
2018-08-20T19:30:28.488Z,7.63
2018-08-20T19:32:58.465Z,5.70
2018-08-20T19:35:27.786Z,7.13
2018-08-20T19:37:57.144Z,5.60
2018-08-20T19:40:26.059Z,19.27
2018-08-20T19:42:54.937Z,7.17
2018-08-20T19:45:26.104Z,6.10
2018-08-20T19:47:54.964Z,6.50
2018-08-20T19:50:24.716Z,5.77
2018-08-20T19:52:53.888Z,5.70
2018-08-20T19:55:22.666Z,6.37
2018-08-20T19:57:51.612Z,6.33
2018-08-20T20:00:21.118Z,5.73
2018-08-20T20:02:56.589Z,7.23
2018-08-20T20:05:25.356Z,6.17
2018-08-20T20:08:03.119Z,5.60
2018-08-20T20:10:32.132Z,6.40
2018-08-20T20:13:00.938Z,7.57
2018-08-20T20:15:32.401Z,6.10
2018-08-20T20:18:01.517Z,7.13
2018-08-20T20:20:30.350Z,6.33
2018-08-20T20:22:59.250Z,6.47
2018-08-20T20:25:28.262Z,5.83
2018-08-20T20:27:57.621Z,6.23
2018-08-20T20:30:26.654Z,8.30
2018-08-20T20:32:56.693Z,6.50
2018-08-20T20:35:25.793Z,6.70
2018-08-20T20:37:54.676Z,7.33
2018-08-20T20:40:25.272Z,7.30
2018-08-20T20:42:54.163Z,6.50
2018-08-20T20:45:23.179Z,6.90
2018-08-20T20:47:52.643Z,5.87
2018-08-20T20:50:21.593Z,6.20
2018-08-20T20:52:50.533Z,6.50
2018-08-20T20:55:19.415Z,6.40
2018-08-20T20:57:48.971Z,7.23
2018-08-20T21:00:18.064Z,7.30
2018-08-20T21:02:48.256Z,6.40
2018-08-20T21:05:17.178Z,6.50
2018-08-20T21:07:46.170Z,7.73
2018-08-20T21:10:15.156Z,6.77
2018-08-20T21:12:45.166Z,6.60
2018-08-20T21:15:14.636Z,6.00
2018-08-20T21:17:43.488Z,6.90
2018-08-20T21:20:13.055Z,6.27
2018-08-20T21:22:43.182Z,13.20
2018-08-20T21:25:12.805Z,6.67
2018-08-20T21:27:42.241Z,7.23
2018-08-20T21:30:11.177Z,6.40
2018-08-20T21:32:40.261Z,8.87
2018-08-20T21:35:09.900Z,5.73
2018-08-20T21:37:38.774Z,10.53
2018-08-20T21:40:07.766Z,6.30
2018-08-20T21:42:41.545Z,6.70
2018-08-20T21:45:10.720Z,6.87
2018-08-20T21:47:39.465Z,6.00
2018-08-20T21:50:09.823Z,6.70
2018-08-20T21:52:38.696Z,6.67
2018-08-20T21:55:07.776Z,5.87
2018-08-20T21:57:42.187Z,6.37
2018-08-20T22:00:14.565Z,6.40
2018-08-20T22:02:47.540Z,6.30
2018-08-20T22:05:16.453Z,6.77
2018-08-20T22:07:45.148Z,6.27
2018-08-20T22:10:14.202Z,7.90
2018-08-20T22:12:43.693Z,7.97
2018-08-20T22:15:12.652Z,6.87
2018-08-20T22:17:43.860Z,5.60
2018-08-20T22:20:12.700Z,7.07
2018-08-20T22:22:42.271Z,7.40
2018-08-20T22:25:13.559Z,6.83
2018-08-20T22:27:47.725Z,6.30
2018-08-20T22:30:17.259Z,6.27
2018-08-20T22:32:47.684Z,6.73
2018-08-20T22:35:24.540Z,6.43
2018-08-20T22:37:53.780Z,6.57
2018-08-20T22:40:23.172Z,6.47
2018-08-20T22:42:55.859Z,6.60
2018-08-20T22:45:25.930Z,7.10
2018-08-20T22:47:56.252Z,6.90
2018-08-20T22:50:25.664Z,7.17
2018-08-20T22:52:54.304Z,7.13
2018-08-20T22:55:23.274Z,8.10
2018-08-20T22:58:03.946Z,7.30
2018-08-20T23:00:33.140Z,6.80
2018-08-20T23:03:02.154Z,6.63
2018-08-20T23:05:32.214Z,6.90
2018-08-20T23:08:14.067Z,6.47
2018-08-20T23:10:43.751Z,6.67
2018-08-20T23:13:12.766Z,6.50
2018-08-20T23:15:42.496Z,7.50
2018-08-20T23:18:11.568Z,6.70
2018-08-20T23:20:40.544Z,7.20
2018-08-20T23:23:10.494Z,7.00
2018-08-20T23:25:39.490Z,6.93
2018-08-20T23:28:08.452Z,6.40
2018-08-20T23:30:37.365Z,7.63
2018-08-20T23:33:07.509Z,10.33
2018-08-20T23:35:37.049Z,6.07
2018-08-20T23:38:06.589Z,6.70
2018-08-20T23:40:35.376Z,5.97
2018-08-20T23:43:04.503Z,6.80
2018-08-20T23:45:34.168Z,7.33
2018-08-20T23:48:03.012Z,5.97
2018-08-20T23:50:31.860Z,6.83
2018-08-20T23:53:02.054Z,7.00
2018-08-20T23:55:31.077Z,6.53
2018-08-20T23:58:04.252Z,6.70
